Time;durP1;ratioP1;P1;durP2;ratioP2;P2;SDS_P1;SDS_P2;PMS_P1;PMS_P2;Temp;Humidity;BMP_temperature;BMP_pressure;BME280_temperature;BME280_humidity;BME280_pressure;Samples;Min_cycle;Max_cycle;Signal;HPM_P1;HPM_P2
2023/07/15 00:00:23;;;;;;;5.00;4.23;;;21.50;71.50;;;21.58;50.56;100298.34;5074175;28;20239;-74
2023/07/15 00:02:56;;;;;;;6.03;4.30;;;21.50;72.50;;;21.57;50.79;100294.84;5072849;28;20200;-74
2023/07/15 00:05:35;;;;;;;6.03;4.33;;;21.50;72.50;;;21.59;50.21;100291.84;5073379;28;20229;-74
2023/07/15 00:08:07;;;;;;;8.20;4.40;;;21.60;71.90;;;21.54;50.45;100289.84;5073522;28;20220;-74
2023/07/15 00:10:44;;;;;;;5.73;3.97;;;21.40;71.90;;;21.42;50.19;100286.34;5073353;28;20221;-74
2023/07/15 00:13:20;;;;;;;7.53;3.93;;;21.40;72.00;;;21.34;50.52;100283.16;5073394;28;20190;-74
2023/07/15 00:15:54;;;;;;;6.77;4.23;;;21.20;72.50;;;21.31;50.36;100279.03;5072925;28;20598;-74
2023/07/15 00:18:26;;;;;;;6.97;4.07;;;21.20;72.40;;;21.25;50.70;100280.00;5073581;28;20204;-74
2023/07/15 00:20:58;;;;;;;8.47;4.27;;;21.30;72.50;;;21.36;50.78;100275.59;5073260;28;20200;-74
2023/07/15 00:23:32;;;;;;;5.93;4.47;;;21.30;72.70;;;21.32;50.83;100275.25;5073321;28;20284;-73
2023/07/15 00:26:03;;;;;;;7.70;3.93;;;21.30;72.50;;;21.31;50.96;100276.31;5073763;28;20320;-74
2023/07/15 00:28:37;;;;;;;9.33;4.40;;;21.20;72.70;;;21.27;51.26;100274.34;5072965;28;20709;-74
2023/07/15 00:31:17;;;;;;;6.47;4.33;;;21.20;73.00;;;21.12;51.45;100267.50;5073246;28;20337;-74
2023/07/15 00:33:50;;;;;;;5.07;4.17;;;21.10;73.40;;;20.94;52.28;100267.63;5073147;28;20193;-74
2023/07/15 00:36:22;;;;;;;9.17;4.30;;;20.90;74.10;;;20.82;52.06;100263.25;5073127;28;20239;-74
2023/07/15 00:38:54;;;;;;;8.30;4.00;;;20.70;74.50;;;20.81;52.18;100262.44;5073172;28;20263;-74
2023/07/15 00:41:31;;;;;;;8.67;4.27;;;20.80;74.50;;;20.75;52.12;100266.13;5072728;28;20653;-74
2023/07/15 00:43:59;;;;;;;8.20;4.73;;;20.80;74.50;;;20.70;52.46;100255.94;5073116;28;20236;-74
2023/07/15 00:47:21;;;;;;;8.40;4.40;;;20.70;74.50;;;20.66;52.88;100243.88;5072927;28;20222;-74
2023/07/15 00:49:54;;;;;;;6.97;4.53;;;20.60;75.30;;;20.63;52.81;100243.50;5072947;28;20578;-74
2023/07/15 00:52:28;;;;;;;7.37;4.63;;;20.60;75.00;;;20.62;52.78;100241.84;5072657;28;20209;-74
2023/07/15 00:55:03;;;;;;;9.00;4.30;;;20.60;75.40;;;20.67;52.56;100242.81;5072573;28;20194;-74
2023/07/15 00:57:35;;;;;;;6.60;4.17;;;20.70;75.20;;;20.62;52.61;100237.25;5072973;28;20189;-74
2023/07/15 01:00:12;;;;;;;6.57;4.53;;;20.60;75.50;;;20.59;52.38;100235.00;5072604;28;20225;-74
2023/07/15 01:02:45;;;;;;;9.23;4.20;;;20.60;75.40;;;20.53;52.74;100238.69;5072875;28;20192;-74
2023/07/15 01:05:18;;;;;;;7.93;4.10;;;20.50;75.50;;;20.54;52.65;100240.34;5072770;28;20226;-74
2023/07/15 01:07:49;;;;;;;8.10;4.60;;;20.60;75.20;;;20.50;52.76;100250.03;5072527;28;20620;-74
2023/07/15 01:10:21;;;;;;;7.10;4.10;;;20.50;75.20;;;20.43;52.80;100241.16;5072781;28;20272;-74
2023/07/15 01:12:53;;;;;;;8.37;4.37;;;20.40;75.30;;;20.38;52.86;100241.03;5072722;28;20713;-74
2023/07/15 01:15:25;;;;;;;5.70;4.60;;;20.40;75.40;;;20.43;52.53;100233.00;5076946;28;20229;-74
2023/07/15 01:17:58;;;;;;;6.20;3.80;;;20.50;75.40;;;20.37;52.65;100233.97;5077010;28;20285;-73
2023/07/15 01:20:32;;;;;;;7.10;4.50;;;20.40;75.20;;;20.24;53.13;100234.97;5076734;28;20194;-75
2023/07/15 01:23:05;;;;;;;8.23;4.20;;;20.30;75.50;;;20.21;53.02;100226.47;5076233;28;20197;-74
2023/07/15 01:25:37;;;;;;;7.30;4.10;;;20.20;75.90;;;20.14;53.45;100223.03;5076328;28;20229;-74
2023/07/15 01:28:09;;;;;;;5.10;3.77;;;20.10;76.30;;;20.10;53.53;100222.66;5075990;28;20644;-74
2023/07/15 01:30:41;;;;;;;6.20;3.87;;;20.10;76.30;;;20.07;53.76;100217.69;5076321;28;20200;-74
2023/07/15 01:33:15;;;;;;;6.60;3.60;;;20.00;76.50;;;19.98;53.59;100215.56;5076204;28;20293;-74
2023/07/15 01:35:51;;;;;;;7.90;4.40;;;20.00;76.80;;;20.03;54.00;100215.72;5075832;28;20226;-74
2023/07/15 01:38:24;;;;;;;10.83;4.17;;;20.00;76.80;;;20.05;53.58;100206.25;5076105;28;20201;-74
2023/07/15 01:40:56;;;;;;;6.97;4.20;;;20.00;76.60;;;20.07;53.76;100206.00;5076111;28;20353;-74
2023/07/15 01:43:28;;;;;;;6.37;4.20;;;20.10;76.40;;;19.99;53.61;100204.47;5076002;28;20277;-75
2023/07/15 01:46:00;;;;;;;7.33;4.33;;;20.00;76.50;;;19.97;53.24;100197.59;5075902;28;20294;-74
2023/07/15 01:48:32;;;;;;;8.93;4.43;;;20.00;76.30;;;19.99;53.70;100190.91;5075930;28;20268;-74
2023/07/15 01:51:04;;;;;;;6.20;4.00;;;20.00;76.50;;;19.95;53.42;100197.84;5075911;28;20228;-74
2023/07/15 01:53:37;;;;;;;6.10;3.80;;;20.00;76.20;;;19.98;53.42;100191.94;5075476;28;20251;-74
2023/07/15 01:56:09;;;;;;;8.97;4.40;;;20.00;76.30;;;19.94;53.64;100189.91;5075704;28;20271;-75
2023/07/15 01:58:41;;;;;;;6.70;4.20;;;20.00;76.30;;;19.87;53.63;100189.19;5075797;28;20201;-75
2023/07/15 02:01:13;;;;;;;10.10;4.43;;;19.90;76.50;;;19.88;53.74;100178.13;5075799;28;20230;-75
2023/07/15 02:03:45;;;;;;;7.10;3.83;;;19.90;76.40;;;19.84;53.98;100189.66;5075401;28;20189;-74
2023/07/15 02:06:17;;;;;;;7.63;4.10;;;19.90;76.80;;;19.83;53.99;100183.41;5075241;28;20749;-75
2023/07/15 02:08:51;;;;;;;6.90;4.27;;;19.80;77.10;;;19.75;54.16;100181.06;5075652;28;20251;-75
2023/07/15 02:11:23;;;;;;;11.30;4.67;;;19.80;77.30;;;19.73;54.20;100177.72;5075551;28;20200;-74
2023/07/15 02:13:55;;;;;;;6.00;4.10;;;19.80;77.50;;;19.69;54.76;100174.66;5075155;28;20304;-73
2023/07/15 02:16:27;;;;;;;7.13;4.40;;;19.70;77.60;;;19.70;54.32;100178.19;5075400;28;20279;-74
2023/07/15 02:18:59;;;;;;;7.43;4.17;;;19.80;77.60;;;19.69;54.62;100166.50;5075364;28;20209;-74
2023/07/15 02:21:31;;;;;;;12.30;4.57;;;19.70;77.90;;;19.61;54.80;100169.56;5075386;28;20220;-74
2023/07/15 02:24:04;;;;;;;7.97;4.33;;;19.60;78.00;;;19.60;54.97;100167.06;5075285;28;20620;-73
2023/07/15 02:26:36;;;;;;;6.27;4.00;;;19.70;78.10;;;19.58;55.14;100170.03;5074651;28;20275;-74
2023/07/15 02:29:08;;;;;;;6.73;3.87;;;19.70;78.50;;;19.62;55.11;100160.34;5075218;28;20281;-75
2023/07/15 02:31:40;;;;;;;7.57;4.13;;;19.70;78.60;;;19.54;55.07;100149.84;5075376;28;20280;-74
2023/07/15 02:34:13;;;;;;;7.27;4.27;;;19.60;78.50;;;19.51;54.96;100150.31;5075310;28;20239;-74
2023/07/15 02:36:44;;;;;;;6.10;3.67;;;19.60;78.40;;;19.48;55.38;100147.22;5075183;28;20308;-74
2023/07/15 02:39:18;;;;;;;7.93;4.10;;;19.50;78.80;;;19.48;55.37;100148.06;5075256;28;20225;-74
2023/07/15 02:41:50;;;;;;;8.10;4.33;;;19.50;78.90;;;19.45;55.38;100131.41;5082592;28;20202;-73
2023/07/15 02:44:20;;;;;;;6.13;3.73;;;19.50;78.90;;;19.40;55.38;100133.94;5096159;28;20181;-73
2023/07/15 02:46:52;;;;;;;5.40;3.60;;;19.40;79.00;;;19.36;55.50;100139.00;5096921;28;20217;-73
2023/07/15 02:49:24;;;;;;;8.63;4.30;;;19.40;79.00;;;19.37;55.33;100132.53;5098077;28;20213;-74
2023/07/15 02:51:56;;;;;;;6.00;3.80;;;19.50;78.90;;;19.29;55.45;100132.00;5095579;28;20193;-73
2023/07/15 02:54:29;;;;;;;10.27;4.00;;;19.40;79.00;;;19.26;55.66;100133.31;5092897;28;20220;-73
2023/07/15 02:57:01;;;;;;;7.80;4.03;;;19.30;79.20;;;19.23;55.71;100128.34;5074567;28;20225;-74
2023/07/15 02:59:34;;;;;;;6.93;3.93;;;19.30;79.30;;;19.15;55.88;100123.25;5074524;28;20200;-74
2023/07/15 03:02:06;;;;;;;5.10;3.80;;;19.30;79.60;;;19.20;56.05;100129.66;5074517;28;20387;-75
2023/07/15 03:04:38;;;;;;;7.50;3.93;;;19.30;79.80;;;19.12;56.34;100118.28;5074729;28;20197;-75
2023/07/15 03:07:13;;;;;;;5.90;4.00;;;19.20;79.90;;;19.20;56.12;100117.97;5074274;28;20237;-75
2023/07/15 03:09:47;;;;;;;5.83;3.73;;;19.30;79.90;;;19.15;56.38;100117.81;5074390;28;20272;-75
2023/07/15 03:12:19;;;;;;;5.33;3.50;;;19.20;80.20;;;19.11;56.52;100114.72;5074042;28;20276;-74
2023/07/15 03:14:51;;;;;;;7.93;3.47;;;19.20;80.30;;;19.05;56.42;100112.13;5074180;28;20289;-74
2023/07/15 03:17:23;;;;;;;11.10;3.63;;;19.10;80.40;;;19.05;56.44;100117.53;5073961;28;20283;-74
2023/07/15 03:19:55;;;;;;;8.17;4.10;;;19.10;80.40;;;19.00;56.37;100112.00;5073784;28;20186;-74
2023/07/15 03:22:27;;;;;;;4.77;3.43;;;19.10;80.60;;;19.01;56.42;100113.63;5074068;28;20193;-74
2023/07/15 03:25:02;;;;;;;6.90;4.33;;;19.10;80.60;;;19.05;56.44;100109.41;5074051;28;20190;-74
2023/07/15 03:27:34;;;;;;;6.57;3.67;;;19.10;80.40;;;19.06;56.32;100111.91;5073708;28;20188;-74
2023/07/15 03:30:08;;;;;;;5.07;3.50;;;19.10;80.30;;;19.09;56.08;100124.16;5073979;28;20278;-74
2023/07/15 03:32:41;;;;;;;7.23;3.57;;;19.20;80.00;;;19.09;56.15;100116.03;5073830;28;20317;-74
2023/07/15 03:35:14;;;;;;;5.27;3.93;;;19.20;81.00;;;19.11;56.13;100116.66;5073527;28;20787;-73
2023/07/15 03:37:47;;;;;;;4.73;3.70;;;19.20;79.80;;;19.10;55.76;100112.28;5073686;28;20276;-74
2023/07/15 03:40:21;;;;;;;5.20;3.30;;;19.20;79.50;;;19.06;55.62;100116.50;5073808;28;20236;-74
2023/07/15 03:42:54;;;;;;;4.50;3.40;;;19.20;79.50;;;19.10;55.68;100112.28;5073542;28;20288;-74
2023/07/15 03:45:26;;;;;;;6.20;3.93;;;19.20;79.30;;;19.06;55.58;100116.50;5074472;28;20257;-74
2023/07/15 03:47:58;;;;;;;6.83;3.57;;;19.20;79.20;;;19.00;55.70;100112.84;5073683;28;20190;-74
2023/07/15 03:50:30;;;;;;;5.93;3.50;;;19.10;79.30;;;19.00;55.82;100117.44;5073643;28;20578;-74
2023/07/15 03:53:02;;;;;;;8.37;3.80;;;19.10;79.60;;;18.97;55.73;100117.88;5073222;28;20244;-75
2023/07/15 03:55:37;;;;;;;6.83;3.60;;;19.10;79.60;;;18.97;55.76;100115.97;5073493;28;20308;-75
2023/07/15 03:58:09;;;;;;;4.40;3.57;;;19.10;79.80;;;18.96;55.90;100113.50;5074283;28;20279;-74
2023/07/15 04:00:41;;;;;;;6.90;3.60;;;19.10;79.80;;;18.95;56.21;100122.69;5073575;28;20193;-73
2023/07/15 04:03:13;;;;;;;5.30;3.33;;;19.00;80.10;;;18.93;56.10;100125.66;5073578;28;20190;-74
2023/07/15 04:05:46;;;;;;;5.17;3.50;;;19.00;80.00;;;18.93;56.13;100119.41;5073099;28;20780;-75
2023/07/15 04:08:18;;;;;;;5.27;3.40;;;19.00;80.20;;;18.91;56.11;100118.78;5073525;28;20190;-74
2023/07/15 04:10:52;;;;;;;5.97;3.30;;;19.00;80.10;;;18.93;56.42;100114.81;5073482;28;20185;-75
2023/07/15 04:13:24;;;;;;;9.60;3.67;;;19.10;80.00;;;18.93;56.01;100119.41;5073327;28;20292;-74
2023/07/15 04:15:55;;;;;;;4.60;3.20;;;19.10;80.00;;;18.96;56.35;100116.22;5073193;28;20567;-74
2023/07/15 04:18:27;;;;;;;5.20;3.10;;;19.10;80.10;;;18.96;56.08;100116.22;5073259;28;20247;-74
2023/07/15 04:21:02;;;;;;;3.70;3.10;;;19.10;80.10;;;18.95;56.67;100111.84;5073253;28;20194;-74
2023/07/15 04:23:34;;;;;;;4.33;2.83;;;19.10;80.60;;;18.97;56.36;100112.47;5073304;28;20190;-74
2023/07/15 04:26:08;;;;;;;5.03;3.10;;;19.20;80.20;;;18.96;56.52;100111.63;5073197;28;20593;-73
2023/07/15 04:28:40;;;;;;;4.90;3.27;;;19.20;80.60;;;19.01;56.28;100108.22;5072913;28;20185;-74
2023/07/15 04:31:12;;;;;;;6.20;3.37;;;19.20;80.30;;;19.03;56.56;100106.09;5072944;28;20732;-74
2023/07/15 04:33:44;;;;;;;6.73;3.30;;;19.20;80.40;;;19.05;56.87;100110.25;5073116;28;20213;-74
2023/07/15 04:36:18;;;;;;;6.90;3.40;;;19.30;80.40;;;19.08;56.71;100119.78;5073118;28;20236;-74
2023/07/15 04:38:50;;;;;;;8.53;3.47;;;19.30;80.40;;;19.10;56.33;100114.97;5073201;28;20273;-74
2023/07/15 04:41:24;;;;;;;4.37;3.03;;;19.30;80.30;;;19.11;56.68;100113.94;5072976;28;20296;-74
2023/07/15 04:43:56;;;;;;;5.03;3.37;;;19.30;80.70;;;19.14;57.44;100108.03;5073092;28;20216;-74
2023/07/15 04:46:28;;;;;;;4.80;3.20;;;19.40;81.40;;;19.17;56.13;100113.00;5073032;28;20279;-74
2023/07/15 04:48:59;;;;;;;4.53;2.77;;;19.40;80.30;;;19.19;56.49;100116.31;5076574;28;20193;-73
2023/07/15 04:51:31;;;;;;;4.80;3.27;;;19.40;80.60;;;19.23;56.99;100117.50;5077365;28;20217;-74
2023/07/15 04:54:03;;;;;;;4.23;2.73;;;19.50;80.80;;;19.25;56.77;100112.66;5076880;28;20300;-75
2023/07/15 04:56:36;;;;;;;6.93;3.70;;;19.50;80.90;;;19.27;57.34;100113.28;5076842;28;20312;-75
2023/07/15 04:59:08;;;;;;;4.93;2.63;;;19.50;81.40;;;19.28;56.28;100109.47;5076882;28;20207;-75
2023/07/15 05:01:40;;;;;;;3.67;3.20;;;19.50;80.30;;;19.31;55.79;100109.03;5076895;28;20224;-73
2023/07/15 05:04:13;;;;;;;5.03;2.90;;;19.60;79.80;;;19.32;56.67;100110.66;5076987;28;20190;-73
2023/07/15 05:06:45;;;;;;;5.70;2.90;;;19.60;80.70;;;19.35;56.15;100112.91;5076665;28;20264;-73
2023/07/15 05:09:17;;;;;;;4.67;3.23;;;19.60;79.90;;;19.38;55.45;100104.34;5076377;28;20284;-74
2023/07/15 05:11:50;;;;;;;6.20;3.10;;;19.70;79.20;;;19.45;54.85;100110.50;5076497;28;20588;-74
2023/07/15 05:14:22;;;;;;;4.90;3.03;;;19.80;78.30;;;19.49;55.52;100117.13;5076508;28;20256;-74
2023/07/15 05:16:54;;;;;;;5.83;3.20;;;19.80;79.00;;;19.59;54.66;100109.22;5076392;28;20308;-74
2023/07/15 05:19:26;;;;;;;4.80;2.97;;;19.90;78.00;;;19.64;54.95;100113.97;5076679;28;20186;-74
2023/07/15 05:21:58;;;;;;;6.83;2.70;;;20.00;78.30;;;19.69;54.82;100106.75;5076160;28;20185;-74
2023/07/15 05:24:31;;;;;;;7.93;3.07;;;20.10;77.90;;;19.73;54.94;100116.09;5076396;28;20190;-74
2023/07/15 05:27:05;;;;;;;9.67;3.50;;;20.10;78.40;;;19.88;54.71;100120.22;5076259;28;20229;-73
2023/07/15 05:29:37;;;;;;;5.03;2.93;;;20.20;77.80;;;19.95;54.43;100115.50;5076269;28;20232;-74
2023/07/15 05:32:10;;;;;;;7.37;3.00;;;20.30;77.70;;;20.03;54.34;100123.31;5076231;28;20190;-74
2023/07/15 05:34:41;;;;;;;3.77;2.70;;;20.40;77.60;;;20.05;55.39;100121.19;5075826;28;20638;-74
2023/07/15 05:37:13;;;;;;;5.13;2.90;;;20.40;78.60;;;20.07;55.28;100119.03;5076050;28;20284;-74
2023/07/15 05:39:48;;;;;;;3.27;2.40;;;20.40;78.50;;;20.20;54.07;100119.66;5076324;28;20280;-74
2023/07/15 05:42:21;;;;;;;5.53;2.60;;;20.60;77.30;;;20.20;55.33;100124.25;5075929;28;20212;-73
2023/07/15 05:44:53;;;;;;;6.00;3.00;;;20.60;78.30;;;20.25;54.46;100114.31;5076001;28;20281;-74
2023/07/15 05:47:25;;;;;;;3.13;2.53;;;20.60;77.90;;;20.47;52.98;100122.72;5076224;28;20736;-74
2023/07/15 05:49:57;;;;;;;5.20;3.00;;;20.80;76.20;;;20.50;53.94;100122.22;5075807;28;20284;-74
2023/07/15 05:52:29;;;;;;;5.13;2.47;;;21.00;76.20;;;20.63;53.15;100121.13;5076176;28;20617;-73
2023/07/15 05:55:01;;;;;;;5.17;2.67;;;21.10;75.80;;;20.62;54.73;100106.69;5075909;28;20241;-73
2023/07/15 05:57:35;;;;;;;4.90;2.90;;;21.10;77.20;;;20.81;53.00;100120.13;5075836;28;20190;-73
2023/07/15 06:00:10;;;;;;;4.23;2.37;;;21.20;75.30;;;20.78;53.67;100129.59;5074434;28;20194;-73
2023/07/15 06:02:42;;;;;;;5.40;2.60;;;21.30;76.30;;;20.78;53.98;100126.06;5076023;28;20216;-74
2023/07/15 06:05:14;;;;;;;4.13;2.63;;;21.20;76.20;;;20.74;54.10;100118.38;5075549;28;20275;-74
2023/07/15 06:07:46;;;;;;;5.83;2.60;;;21.20;76.90;;;20.75;53.65;100122.72;5075600;28;20237;-74
2023/07/15 06:10:18;;;;;;;3.73;2.70;;;21.20;76.60;;;20.80;53.15;100124.72;5075595;28;20194;-74
2023/07/15 06:12:51;;;;;;;3.27;2.80;;;21.20;76.20;;;20.88;53.08;100131.69;5075207;28;20579;-74
2023/07/15 06:15:23;;;;;;;6.43;2.80;;;21.30;75.90;;;21.22;51.71;100125.31;5075299;28;20680;-74
2023/07/15 06:17:55;;;;;;;5.57;2.67;;;21.60;74.10;;;21.19;52.29;100120.34;5075102;28;20667;-74
2023/07/15 06:20:27;;;;;;;4.17;2.80;;;21.60;74.50;;;21.17;52.40;100122.47;5075060;28;20654;-74
2023/07/15 06:22:59;;;;;;;2.93;2.63;;;21.60;75.00;;;21.14;53.49;100128.41;5074983;28;20277;-75
2023/07/15 06:25:31;;;;;;;3.50;2.73;;;21.60;76.50;;;21.13;53.89;100118.63;5075190;28;20230;-75
2023/07/15 06:28:04;;;;;;;3.00;2.50;;;21.60;76.80;;;21.18;53.77;100118.69;5074922;28;20197;-75
2023/07/15 06:30:36;;;;;;;3.63;2.37;;;21.70;76.70;;;21.40;51.56;100114.22;5075211;28;20244;-75
2023/07/15 06:33:08;;;;;;;5.07;2.47;;;21.80;74.40;;;21.44;51.38;100109.09;5075086;28;20189;-75
2023/07/15 06:35:40;;;;;;;4.33;2.40;;;21.90;73.50;;;21.47;52.04;100103.94;5074942;28;20229;-75
2023/07/15 06:38:12;;;;;;;5.43;2.87;;;22.00;74.10;;;21.52;52.81;100104.06;5075865;28;20225;-75
2023/07/15 06:40:44;;;;;;;6.63;2.60;;;22.00;74.80;;;21.72;51.03;100104.38;5075003;28;20194;-75
2023/07/15 06:43:17;;;;;;;6.87;2.83;;;22.20;73.20;;;21.83;50.68;100096.34;5074751;28;20213;-75
2023/07/15 06:45:49;;;;;;;4.97;2.40;;;22.30;72.60;;;21.84;51.48;100098.03;5075064;28;20307;-75
2023/07/15 06:48:20;;;;;;;4.83;2.97;;;22.30;73.20;;;22.07;49.47;100103.28;5074867;28;20221;-75
2023/07/15 06:50:52;;;;;;;5.63;2.60;;;22.40;71.80;;;22.31;48.52;100104.72;5074790;28;20538;-75
2023/07/15 06:53:24;;;;;;;4.27;2.67;;;22.70;70.60;;;22.61;47.64;100101.56;5074673;28;20186;-75
2023/07/15 06:55:57;;;;;;;3.90;2.53;;;23.00;69.30;;;22.63;48.42;100096.69;5074760;28;20320;-75
2023/07/15 06:58:46;;;;;;;6.97;2.50;;;23.30;69.20;;;22.61;48.20;100102.38;5074282;28;20189;-75
2023/07/15 07:01:18;;;;;;;4.83;2.87;;;23.10;69.20;;;22.86;47.64;100106.53;5074540;28;20193;-75
2023/07/15 07:03:51;;;;;;;4.77;2.50;;;23.20;69.00;;;22.92;47.71;100089.13;5074209;28;20193;-75
2023/07/15 07:06:23;;;;;;;4.83;2.40;;;23.40;68.40;;;23.07;47.33;100098.31;5074414;28;20304;-75
2023/07/15 07:08:55;;;;;;;4.23;2.80;;;23.50;68.20;;;23.21;46.57;100096.00;5074383;28;20217;-75
2023/07/15 07:11:27;;;;;;;6.03;3.00;;;23.60;67.40;;;23.24;46.96;100099.03;5073962;28;20229;-75
2023/07/15 07:14:00;;;;;;;4.60;2.40;;;23.70;67.60;;;23.40;46.12;100091.78;5073971;28;20638;-75
2023/07/15 07:16:32;;;;;;;4.10;2.67;;;23.80;66.80;;;23.54;45.66;100101.22;5074320;28;20260;-75
2023/07/15 07:19:04;;;;;;;9.57;2.93;;;23.90;66.50;;;23.78;45.47;100095.41;5073961;28;20692;-75
2023/07/15 07:21:36;;;;;;;2.67;2.30;;;24.10;66.00;;;23.99;44.66;100095.28;5074122;28;20276;-75
2023/07/15 07:24:09;;;;;;;4.70;2.43;;;24.30;65.40;;;24.17;44.05;100094.91;5073775;28;20649;-75
2023/07/15 07:26:41;;;;;;;2.73;2.40;;;24.40;64.20;;;24.08;44.95;100099.16;5074009;28;20324;-75
2023/07/15 07:29:14;;;;;;;3.53;2.70;;;24.40;65.10;;;23.99;45.24;100100.75;5074059;28;20244;-75
2023/07/15 07:31:46;;;;;;;7.47;2.70;;;24.40;65.40;;;24.15;44.10;100093.50;5073980;28;20268;-75
2023/07/15 07:34:18;;;;;;;4.27;2.90;;;24.50;63.90;;;24.10;44.82;100096.19;5074063;28;20236;-75
2023/07/15 07:36:50;;;;;;;4.83;2.27;;;24.50;64.70;;;24.41;43.08;100102.66;5073507;28;20260;-75
2023/07/15 07:39:22;;;;;;;5.30;2.77;;;24.70;63.40;;;24.54;42.88;100094.78;5073802;28;20280;-75
2023/07/15 07:41:55;;;;;;;6.57;3.07;;;24.80;62.60;;;24.45;44.56;100093.66;5073589;28;20309;-75
2023/07/15 07:44:28;;;;;;;3.23;2.70;;;24.80;64.00;;;24.37;44.45;100099.66;5073745;28;20239;-75
2023/07/15 07:47:00;;;;;;;4.57;2.57;;;24.70;64.80;;;24.47;43.87;100086.00;5073659;28;20320;-75
2023/07/15 07:49:32;;;;;;;3.13;2.50;;;24.70;64.30;;;24.27;45.54;100085.91;5073708;28;20292;-75
2023/07/15 07:52:11;;;;;;;4.77;2.70;;;24.70;65.30;;;24.28;45.96;100084.84;5073674;28;20243;-76
2023/07/15 07:54:45;;;;;;;5.27;2.67;;;24.70;66.00;;;24.50;43.84;100090.94;5073690;28;20217;-76
2023/07/15 07:57:20;;;;;;;2.60;2.40;;;24.80;64.00;;;24.67;45.08;100088.81;5073604;28;20189;-75
2023/07/15 07:59:55;;;;;;;3.27;2.23;;;25.10;64.80;;;24.77;44.10;100095.41;5073467;28;20228;-75
2023/07/15 08:02:30;;;;;;;4.00;2.90;;;25.10;63.70;;;24.76;44.82;100107.47;5073512;28;20228;-75
2023/07/15 08:05:04;;;;;;;4.17;2.73;;;25.20;64.20;;;24.72;45.67;100105.28;5073959;28;20193;-74
2023/07/15 08:07:36;;;;;;;5.20;2.57;;;25.10;65.40;;;24.69;45.73;100094.03;5073550;28;20224;-74
2023/07/15 08:10:12;;;;;;;7.27;6.27;;;25.10;66.00;;;24.71;46.29;100091.84;5073528;28;20653;-75
2023/07/15 08:12:48;;;;;;;4.13;2.30;;;25.10;66.20;;;24.74;46.09;100085.84;5073604;28;20205;-75
2023/07/15 08:15:22;;;;;;;5.53;3.30;;;25.20;66.30;;;24.83;45.37;100083.44;5073361;28;20570;-75
2023/07/15 08:17:54;;;;;;;5.97;4.30;;;25.30;65.20;;;24.91;45.65;100088.38;5073495;28;20281;-75
2023/07/15 08:20:29;;;;;;;7.35;3.22;;;25.40;65.40;;;25.01;45.21;100086.47;5073437;28;20190;-75
2023/07/15 08:23:03;;;;;;;3.55;2.55;;;25.50;64.60;;;25.11;43.90;100091.16;5072775;28;20284;-75
2023/07/15 08:25:37;;;;;;;2.70;2.50;;;25.60;63.20;;;25.21;44.70;100089.25;5073382;28;20216;-75
2023/07/15 08:28:13;;;;;;;5.72;2.65;;;25.60;64.40;;;25.30;44.24;100089.56;5073656;28;20216;-75
2023/07/15 08:30:48;;;;;;;4.93;3.88;;;25.70;63.70;;;25.40;44.70;100092.31;5073698;28;20217;-75
2023/07/15 08:33:21;;;;;;;3.67;2.83;;;25.80;64.40;;;25.80;42.15;100079.69;5073801;28;20721;-75
2023/07/15 08:35:53;;;;;;;3.80;2.70;;;26.20;61.20;;;25.88;42.93;100093.69;5073367;28;20701;-75
2023/07/15 08:38:24;;;;;;;4.47;2.78;;;26.30;61.50;;;26.06;41.17;100092.28;5073777;28;20194;-74
2023/07/15 08:41:03;;;;;;;7.25;3.88;;;26.40;60.60;;;26.30;40.80;100092.53;5080532;28;20736;-73
2023/07/15 08:43:36;;;;;;;8.90;2.65;;;26.70;59.40;;;26.44;40.54;100086.16;5092479;28;20192;-74
2023/07/15 08:46:18;;;;;;;5.72;2.95;;;26.80;59.30;;;26.54;40.43;100086.09;5087864;28;20225;-73
2023/07/15 08:48:51;;;;;;;8.82;4.22;;;26.90;60.40;;;26.43;43.83;100086.44;5089740;28;20638;-74
2023/07/15 08:51:30;;;;;;;4.82;3.35;;;26.90;63.30;;;26.40;43.85;100093.31;5077465;28;20264;-74
2023/07/15 08:54:07;;;;;;;4.90;3.78;;;26.80;63.20;;;26.41;43.47;100088.63;5073159;28;20248;-74
2023/07/15 08:56:40;;;;;;;6.82;5.07;;;26.80;62.80;;;26.48;43.41;100095.47;5073035;28;20267;-74
2023/07/15 08:59:15;;;;;;;6.38;3.08;;;26.90;62.60;;;26.77;41.84;100086.56;5072957;28;20243;-75
2023/07/15 09:01:49;;;;;;;3.92;2.60;;;27.10;60.70;;;26.69;43.35;100087.97;5072624;28;20228;-75
2023/07/15 09:04:21;;;;;;;3.95;2.75;;;27.10;62.10;;;26.73;42.72;100086.31;5073016;28;20194;-75
2023/07/15 09:06:55;;;;;;;3.85;2.70;;;27.10;61.40;;;26.99;41.22;100089.75;5072826;28;20221;-75
2023/07/15 09:09:33;;;;;;;10.38;2.85;;;27.40;59.70;;;27.09;40.60;100092.47;5072614;28;20233;-75
2023/07/15 09:12:09;;;;;;;6.28;2.75;;;27.50;59.20;;;27.20;40.92;100091.28;5072935;28;20215;-75
2023/07/15 09:14:45;;;;;;;2.92;2.63;;;27.50;59.90;;;27.23;40.50;100092.66;5072815;28;20186;-75
2023/07/15 09:17:26;;;;;;;3.65;2.30;;;27.60;59.50;;;27.26;41.17;100079.16;5072467;28;20552;-75
2023/07/15 09:20:00;;;;;;;6.85;2.45;;;27.60;59.60;;;27.66;39.53;100084.34;5072656;28;20216;-75
2023/07/15 09:22:35;;;;;;;6.10;2.80;;;28.00;58.10;;;28.02;37.98;100086.75;5072794;28;20182;-74
2023/07/15 09:25:12;;;;;;;3.97;2.60;;;28.20;56.20;;;27.98;38.74;100097.50;5072654;28;20229;-74
2023/07/15 09:27:49;;;;;;;6.53;2.78;;;28.30;57.00;;;28.19;38.17;100110.00;5072812;28;20189;-74
2023/07/15 09:30:21;;;;;;;5.57;2.63;;;28.40;56.50;;;28.10;39.50;100099.91;5072682;28;20225;-74
2023/07/15 09:32:54;;;;;;;4.07;2.75;;;28.40;58.10;;;27.96;40.55;100110.75;5072393;28;20639;-74
2023/07/15 09:35:39;;;;;;;6.93;2.88;;;28.20;59.10;;;28.04;40.86;100109.31;5074747;28;20581;-74
2023/07/15 09:38:14;;;;;;;2.83;2.40;;;28.30;59.10;;;28.23;38.86;100101.97;5076118;28;20193;-75
2023/07/15 09:40:48;;;;;;;3.65;2.50;;;28.50;57.50;;;28.25;39.30;100113.53;5075815;28;20548;-73
2023/07/15 09:43:21;;;;;;;2.90;2.70;;;28.50;57.90;;;28.38;39.20;100104.56;5075728;28;20219;-73
2023/07/15 09:45:53;;;;;;;3.20;2.40;;;28.60;57.80;;;28.64;37.61;100103.13;5075992;28;20324;-73
2023/07/15 09:48:30;;;;;;;4.30;2.55;;;28.90;56.30;;;28.62;39.33;100110.88;5076009;28;20197;-73
2023/07/15 09:51:02;;;;;;;3.75;2.78;;;29.00;57.70;;;28.69;38.80;100119.66;5076027;28;20232;-73
2023/07/15 09:53:35;;;;;;;3.47;2.60;;;29.00;56.90;;;28.91;36.46;100112.72;5075911;28;20190;-72
2023/07/15 09:56:09;;;;;;;6.13;2.80;;;29.20;54.90;;;28.96;37.04;100118.19;5075729;28;20320;-71
2023/07/15 09:58:47;;;;;;;4.40;2.63;;;29.20;55.20;;;29.26;36.34;100122.47;5075900;28;20213;-71
2023/07/15 10:01:32;;;;;;;4.47;2.67;;;29.40;54.70;;;29.40;36.10;100124.19;5075467;28;20281;-72
2023/07/15 10:04:19;;;;;;;4.10;2.78;;;29.50;54.30;;;29.37;37.71;100129.47;5075703;28;20196;-72
2023/07/15 10:06:52;;;;;;;5.22;3.33;;;29.60;55.30;;;29.41;37.01;100127.75;5075562;28;20316;-72
2023/07/15 10:09:26;;;;;;;3.38;2.72;;;29.60;55.50;;;29.39;37.42;100132.75;5075658;28;20235;-72
2023/07/15 10:12:00;;;;;;;4.43;2.20;;;29.60;55.10;;;29.38;37.02;100142.16;5075554;28;20285;-72
2023/07/15 10:14:33;;;;;;;3.25;2.55;;;29.50;55.20;;;29.59;35.68;100126.94;5075557;28;20189;-72
2023/07/15 10:17:14;;;;;;;4.00;3.20;;;29.70;54.10;;;29.62;36.83;100131.84;5075301;28;20320;-73
2023/07/15 10:19:49;;;;;;;3.00;2.47;;;29.70;54.70;;;29.54;38.44;100146.31;5075425;28;20674;-72
2023/07/15 10:22:23;;;;;;;6.05;3.05;;;29.70;56.50;;;29.67;36.09;100143.59;5075418;28;20564;-72
2023/07/15 10:25:02;;;;;;;3.80;2.50;;;29.80;53.80;;;29.77;36.15;100152.81;5075232;28;20185;-74
2023/07/15 10:27:35;;;;;;;3.38;2.47;;;29.80;54.20;;;29.61;36.62;100153.09;5075320;28;20269;-72
2023/07/15 10:30:23;;;;;;;6.55;3.08;;;29.70;54.90;;;29.54;36.89;100165.63;5076030;28;20197;-72
2023/07/15 10:33:25;;;;;;;4.57;2.65;;;29.60;55.60;;;29.57;36.86;100156.75;5075156;28;20281;-72
2023/07/15 10:35:58;;;;;;;7.13;2.60;;;29.60;54.80;;;29.56;36.10;100160.59;5074921;28;20256;-73
2023/07/15 10:38:33;;;;;;;6.70;2.83;;;29.60;54.20;;;29.51;36.27;100175.31;5075061;28;20194;-72